Flight Track Log - Related Links

Times and Time Zones

All times are in EDT time to prevent confusion due to time zone crossing. See the FLG4211 flight status page for this flight to view local times or setup timezone preferences in your user account.

Time Position Orientation Groundspeed Altitude Reporting Facility
EDT Latitude Longitude Course Direction KTS MPH feet Rate Location/Type
Sun 01:28:11 PM 42.1581 -85.3294 103° East 259 298 8,000  Level Chicago Center
Sun 01:29:00 PM 42.1482 -85.1661 107° East  Level FlightAware Approximate
Sun 01:29:13 PM 42.1400 -85.2228 103° East 282 325 9,000  Level Chicago Center
Sun 01:30:00 PM 42.1289 -85.0837 108° East  Level FlightAware Approximate
Sun 01:30:15 PM 42.1189 -85.0944 102° East 290 334 9,000  Level Chicago Center
Sun 01:31:00 PM 42.1070 -84.9903 108° East  Level FlightAware Approximate
Sun 01:31:17 PM 42.1011 -84.9908 103° East 285 328 9,000  Level Chicago Center
Sun 01:32:00 PM 42.0849 -84.8970 108° East  Level FlightAware Approximate
Sun 01:32:19 PM 42.0836 -84.8850 103° East 287 330 9,000  Level Chicago Center
Sun 01:33:21 PM 42.0656 -84.7800 103° East 287 330 9,000  Level Chicago Center
Sun 01:34:23 PM 42.0225 -84.6897 123° Southeast 284 327 9,000  Level Chicago Center
Sun 01:35:24 PM 41.9772 -84.6050 126° Southeast 280 322 9,000  Level Chicago Center
Sun 01:36:26 PM 41.9317 -84.5189 125° Southeast 281 323 9,000  Level Chicago Center
Sun 01:37:28 PM 41.8775 -84.4183 126° Southeast 278 320 9,000 -51 Level Chicago Center
Sun 01:38:23 PM 41.8356 -84.3458 128° Southeast 278 320 8,900 -491 Descending Cleveland Center
Sun 01:39:18 PM 41.7944 -84.2683 125° Southeast 279 321 8,100 -828 Descending Cleveland Center
Sun 01:40:19 PM 41.7950 -84.1792 89° East 282 325 7,300 -836 Descending Cleveland Center
Sun 01:41:20 PM 41.8578 -84.1044 42° Northeast 281 323 6,400 -645 Descending Cleveland Center
Sun 01:42:20 PM 41.9203 -84.0411 37° Northeast 280 322 6,000 -197 Descending Cleveland Center
Sun 01:43:22 PM 41.9869 -83.9775 35° Northeast 282 325 6,000  Level Cleveland Center
Sun 01:44:22 PM 42.0472 -83.9136 38° Northeast 279 321 6,000  Level Cleveland Center
Sun 01:45:23 PM 42.1072 -83.8525 37° Northeast 277 319 6,000 -414 Level Cleveland Center
Sun 01:46:18 PM 42.1611 -83.7936 39° Northeast 274 315 5,200 -492 Descending Cleveland Center
Sun 01:47:25 PM 42.2297 -83.7183 39° Northeast 276 318 5,000 -94 Descending Cleveland Center
Sun 01:48:26 PM 42.2942 -83.6542 36° Northeast 280 322 5,000  Level Cleveland Center
Sun 01:49:27 PM 42.3542 -83.5925 37° Northeast 277 319 5,000  Level Cleveland Center
Sun 01:50:27 PM 42.4161 -83.5308 36° Northeast 275 316 5,000  Level Cleveland Center
Sun 01:51:34 PM 42.4722 -83.4544 45° Northeast 258 297 5,000 -148 Level Cleveland Center
Sun 01:52:29 PM 42.4931 -83.3711 71° East 236 272 4,700 -517 Descending Cleveland Center
Sun 01:53:30 PM 42.4700 -83.2939 112° Southeast 209 241 4,000 -344 Descending Cleveland Center
Sun 01:54:31 PM 42.4547 -83.2314 108° East 169 194 4,000  Level Cleveland Center
Sun 01:55:32 PM 42.4067 -83.2378 186° South 172 198 4,000 -98 Level Cleveland Center
Sun 01:56:33 PM 42.3642 -83.2669 207° Southwest 154 177 3,800 -197 Descending Cleveland Center

Login

Don't have an account? Register now (free) for customized features, flight alerts, and more!